Fort Logan, Colorado
Current Conditions -  °F | °C
As of 11:53 PM on Wednesday 17 Dec 2014 (Local Time) from KAPA Reporting Station
Few Clouds Few Clouds  
Wind Chill: 22°   Ceiling: Unl
Heat Index: 28°   Visibility: 8mi
Dew Point: 23°   Wind: 6mph
Humidity: 81%   Direction: 220°SW
Pressure: 29.97"   Gusts: NA
Location:  39.6516°N, 105.039°W
Report Text: KAPA 180653Z 22005KT 8SM FEW080 M02/M05 A2997 RMK AO2 SLP170 T10221050 400611072
Loading
Personal Weather Stations






























Interactive Weather Map New forecast layout! Learn more

10-Day Weather Forecast

Advertisements
Track Severe Weather on mobile